Kemah, Texas
Current Conditions -  °F | °C
As of 4:50 PM on Sunday 25 Jan 2015 (Local Time) from KEFD Reporting Station
Broken Clouds Broken Clouds  
Wind Chill: 68°   Ceiling: 25000
Heat Index: 68°   Visibility: 10mi
Dew Point: 43°   Wind: 14mph
Humidity: 40%   Direction: 270°W
Pressure: 30.03"   Gusts: NA
Location:  29.54°N, 95.02°W
Report Text: KEFD 252250Z 27012KT 10SM BKN250 20/06 A3003
Loading
Personal Weather Stations






























Interactive Weather Map New forecast layout! Learn more

10-Day Weather Forecast

Advertisements
Track Severe Weather on mobile